KDRO/DRO METAR and TAF weather

Enter ICAO airport designator
Station Type Date Time Source
KDRO METAR 2019/02/23 16:53 UTC NOAA

KDRO 231653Z AUTO 00000KT 10SM CLR M07/M11 A2998 RMK AO2 SLP200 T10671111


Station Type Date Time Source
KDRO Decoded METAR 2019/02/23 16:53 UTC NOAA

DURANGO-LA PLATA COUNTY AIRPORT , CO, United States (KDRO) 37-09N 107-46W 2035M
Feb 23, 2019 - 11:53 AM EST / 2019.02.23 1653 UTC
Wind: Calm:0
Visibility: 10 mile(s):0
Sky conditions: clear
Temperature: 19.9 F (-6.7 C)
Dew Point: 12.0 F (-11.1 C)
Relative Humidity: 70%
Pressure (altimeter): 29.98 in. Hg (1015 hPa)
ob: KDRO 231653Z AUTO 00000KT 10SM CLR M07/M11 A2998 RMK AO2 SLP200 T10671111
cycle: 17

Station Type Date Time Source
KDRO TAF 2019/02/23 12:33 UTC NOAA

TAF KDRO 231131Z 2312/2412 24009KT P6SM SCT060 BKN120
FM231400 27007KT P6SM FEW250
FM240300 31005KT P6SM SKC
FM240700 VRB03KT P6SM FEW250


Example: see airport list